Time;durP1;ratioP1;P1;durP2;ratioP2;P2;SDS_P1;SDS_P2;PMS_P1;PMS_P2;Temp;Humidity;BMP_temperature;BMP_pressure;BME280_temperature;BME280_humidity;BME280_pressure;Samples;Min_cycle;Max_cycle;Signal;HPM_P1;HPM_P2
2024/02/15 00:01:54;;;;;;;33.17;8.50;;;;;;;;;;6384572;27;20281;-57
2024/02/15 00:04:57;;;;;;;52.10;10.30;;;;;;;;;;6383895;27;20301;-55
2024/02/15 00:08:01;;;;;;;27.37;8.00;;;;;;;;;;6383744;27;20310;-56
2024/02/15 00:11:05;;;;;;;29.27;7.60;;;;;;;;;;6360949;27;20299;-54
2024/02/15 00:14:11;;;;;;;27.80;7.40;;;;;;;;;;6357899;28;20246;-55
2024/02/15 00:17:16;;;;;;;34.87;7.30;;;;;;;;;;6358070;28;20294;-56
2024/02/15 00:20:20;;;;;;;29.23;7.13;;;;;;;;;;6357615;28;20524;-55
2024/02/15 00:23:24;;;;;;;38.43;7.13;;;;;;;;;;6357629;28;20291;-55
2024/02/15 00:26:28;;;;;;;18.93;6.93;;;;;;;;;;6357797;28;20289;-56
2024/02/15 00:29:34;;;;;;;28.67;7.30;;;;;;;;;;6357227;28;20293;-55
2024/02/15 00:32:39;;;;;;;34.47;8.10;;;;;;;;;;6358230;28;20369;-55
2024/02/15 00:35:43;;;;;;;32.17;7.73;;;;;;;;;;6369583;27;20297;-56
2024/02/15 00:38:47;;;;;;;33.33;7.27;;;;;;;;;;6331962;28;20539;-56
2024/02/15 00:41:51;;;;;;;33.27;7.50;;;;;;;;;;6332650;28;20294;-55
2024/02/15 00:44:57;;;;;;;36.53;7.30;;;;;;;;;;6332356;28;20469;-55
2024/02/15 00:48:00;;;;;;;27.73;7.10;;;;;;;;;;6332685;28;20300;-56
2024/02/15 00:51:05;;;;;;;22.97;6.83;;;;;;;;;;6332115;28;20290;-55
2024/02/15 00:54:10;;;;;;;26.03;7.23;;;;;;;;;;6332166;28;20287;-55
2024/02/15 00:57:14;;;;;;;29.37;7.47;;;;;;;;;;6310412;28;20301;-56
2024/02/15 01:00:20;;;;;;;23.43;6.60;;;;;;;;;;6306884;28;20296;-55
2024/02/15 01:03:24;;;;;;;29.63;7.50;;;;;;;;;;6306512;28;20317;-56
2024/02/15 01:06:28;;;;;;;23.40;6.87;;;;;;;;;;6306970;28;20292;-55
2024/02/15 01:09:32;;;;;;;25.97;7.50;;;;;;;;;;6313729;28;20302;-56
2024/02/15 01:12:36;;;;;;;28.00;7.00;;;;;;;;;;6329292;28;20287;-57
2024/02/15 01:15:41;;;;;;;25.60;6.87;;;;;;;;;;6331682;28;20293;-56
2024/02/15 01:18:45;;;;;;;25.13;6.90;;;;;;;;;;6331691;28;20295;-54
2024/02/15 01:21:49;;;;;;;24.73;6.73;;;;;;;;;;6337180;28;20268;-56
2024/02/15 01:24:53;;;;;;;29.70;6.30;;;;;;;;;;6336418;28;20285;-57
2024/02/15 01:27:57;;;;;;;28.67;7.07;;;;;;;;;;6336970;28;20292;-55
2024/02/15 01:31:02;;;;;;;22.57;7.00;;;;;;;;;;6336333;28;20471;-55
2024/02/15 01:34:06;;;;;;;24.27;6.17;;;;;;;;;;6336247;28;20292;-56
2024/02/15 01:37:10;;;;;;;20.97;6.57;;;;;;;;;;6318407;28;20298;-55
2024/02/15 01:40:14;;;;;;;26.90;6.60;;;;;;;;;;6336503;28;20580;-57
2024/02/15 01:43:18;;;;;;;27.53;6.97;;;;;;;;;;6336324;28;20300;-52
2024/02/15 01:46:23;;;;;;;28.33;7.03;;;;;;;;;;6336700;28;20295;-55
2024/02/15 01:49:29;;;;;;;23.63;6.33;;;;;;;;;;6335906;28;20296;-55
2024/02/15 01:52:33;;;;;;;14.20;5.73;;;;;;;;;;6335962;28;20383;-55
2024/02/15 01:55:37;;;;;;;15.83;5.67;;;;;;;;;;6344082;28;20620;-55
2024/02/15 01:58:41;;;;;;;15.77;5.83;;;;;;;;;;6360924;28;20295;-56
2024/02/15 02:01:46;;;;;;;13.73;5.57;;;;;;;;;;6361462;28;20287;-55
2024/02/15 02:04:50;;;;;;;16.27;5.43;;;;;;;;;;6361003;28;20472;-56
2024/02/15 02:07:54;;;;;;;16.30;5.53;;;;;;;;;;6361035;28;20290;-56
2024/02/15 02:10:58;;;;;;;14.33;6.13;;;;;;;;;;6352758;28;20362;-55
2024/02/15 02:14:02;;;;;;;16.30;4.77;;;;;;;;;;6360462;28;20366;-58
2024/02/15 02:17:14;;;;;;;17.20;5.00;;;;;;;;;;6361289;28;20303;-57
2024/02/15 02:20:19;;;;;;;10.73;5.30;;;;;;;;;;6360509;28;20377;-57
2024/02/15 02:23:27;;;;;;;12.80;5.23;;;;;;;;;;6360488;28;20296;-58
2024/02/15 02:26:32;;;;;;;9.50;5.03;;;;;;;;;;6360981;28;20290;-54
2024/02/15 02:29:37;;;;;;;11.40;5.20;;;;;;;;;;6359223;28;20259;-58
2024/02/15 02:32:40;;;;;;;11.70;5.27;;;;;;;;;;6360802;28;20282;-55
2024/02/15 02:35:44;;;;;;;30.23;5.77;;;;;;;;;;6360097;28;20299;-55
2024/02/15 02:38:49;;;;;;;13.17;5.13;;;;;;;;;;6360009;28;20294;-55
2024/02/15 02:41:55;;;;;;;11.53;5.30;;;;;;;;;;6360866;28;20290;-55
2024/02/15 02:44:59;;;;;;;9.90;5.37;;;;;;;;;;6360037;28;20316;-56
2024/02/15 02:48:04;;;;;;;12.63;5.30;;;;;;;;;;6360042;28;20612;-56
2024/02/15 02:51:08;;;;;;;14.37;4.87;;;;;;;;;;6359592;28;20291;-55
2024/02/15 02:54:15;;;;;;;10.97;5.03;;;;;;;;;;6360037;28;20318;-56
2024/02/15 02:57:20;;;;;;;10.43;5.30;;;;;;;;;;6360230;28;20306;-55
2024/02/15 03:00:24;;;;;;;9.60;4.87;;;;;;;;;;6359300;28;20320;-55
2024/02/15 03:03:29;;;;;;;8.13;4.50;;;;;;;;;;6359473;28;20296;-55
2024/02/15 03:06:33;;;;;;;8.73;5.10;;;;;;;;;;6359837;28;20289;-54
2024/02/15 03:09:37;;;;;;;7.83;4.70;;;;;;;;;;6351183;28;20310;-54
2024/02/15 03:12:46;;;;;;;14.10;4.67;;;;;;;;;;6359436;28;20299;-54
2024/02/15 03:15:52;;;;;;;8.53;4.80;;;;;;;;;;6358921;28;20290;-53
2024/02/15 03:18:55;;;;;;;10.53;4.77;;;;;;;;;;6358857;28;20594;-54
2024/02/15 03:22:00;;;;;;;8.77;5.30;;;;;;;;;;6359384;28;20287;-53
2024/02/15 03:25:07;;;;;;;12.40;5.33;;;;;;;;;;6358418;28;20287;-55
2024/02/15 03:28:12;;;;;;;9.57;4.70;;;;;;;;;;6358235;28;20583;-57
2024/02/15 03:31:17;;;;;;;8.80;4.67;;;;;;;;;;6359102;28;20298;-56
2024/02/15 03:34:23;;;;;;;9.53;4.77;;;;;;;;;;6358299;28;20296;-55
2024/02/15 03:37:27;;;;;;;7.60;4.57;;;;;;;;;;6358741;28;20301;-56
2024/02/15 03:40:32;;;;;;;8.83;4.97;;;;;;;;;;6357230;28;20342;-53
2024/02/15 03:43:38;;;;;;;8.20;4.40;;;;;;;;;;6357456;28;20305;-55
2024/02/15 03:46:42;;;;;;;8.93;5.00;;;;;;;;;;6358607;28;20286;-55
2024/02/15 03:49:46;;;;;;;9.80;4.97;;;;;;;;;;6357998;28;20291;-53
2024/02/15 03:52:51;;;;;;;8.30;4.70;;;;;;;;;;6358474;28;20282;-56
2024/02/15 03:55:55;;;;;;;5.77;4.27;;;;;;;;;;6357834;28;20238;-55
2024/02/15 03:59:04;;;;;;;7.30;4.73;;;;;;;;;;6357851;28;20299;-56
2024/02/15 04:02:14;;;;;;;8.33;4.80;;;;;;;;;;6345871;28;20287;-57
2024/02/15 04:05:19;;;;;;;9.43;4.53;;;;;;;;;;6349388;28;20299;-55
2024/02/15 04:08:23;;;;;;;7.50;4.83;;;;;;;;;;6356934;28;20309;-56
2024/02/15 04:11:27;;;;;;;7.80;4.60;;;;;;;;;;6338691;28;20286;-55
2024/02/15 04:14:33;;;;;;;5.33;4.67;;;;;;;;;;6357459;28;20286;-55
2024/02/15 04:17:38;;;;;;;5.90;4.67;;;;;;;;;;6357843;28;20289;-56
2024/02/15 04:20:44;;;;;;;5.03;4.23;;;;;;;;;;6335637;28;20575;-56
2024/02/15 04:23:48;;;;;;;6.93;4.73;;;;;;;;;;6314011;28;20299;-56
2024/02/15 04:26:52;;;;;;;5.20;4.70;;;;;;;;;;6332201;28;20294;-56
2024/02/15 04:29:58;;;;;;;5.50;4.27;;;;;;;;;;6332163;28;20300;-56
2024/02/15 04:33:02;;;;;;;5.40;4.70;;;;;;;;;;6332274;28;20548;-56
2024/02/15 04:36:06;;;;;;;8.33;4.60;;;;;;;;;;6340237;28;20291;-55
2024/02/15 04:39:15;;;;;;;4.87;4.47;;;;;;;;;;6357072;28;20300;-56
2024/02/15 04:42:19;;;;;;;6.80;4.60;;;;;;;;;;6357443;28;20291;-56
2024/02/15 04:45:24;;;;;;;6.67;4.67;;;;;;;;;;6356864;28;20586;-54
2024/02/15 04:48:29;;;;;;;6.37;5.10;;;;;;;;;;6356863;28;20255;-56
2024/02/15 04:51:33;;;;;;;7.63;5.60;;;;;;;;;;6338900;28;20387;-56
2024/02/15 04:54:38;;;;;;;8.33;5.00;;;;;;;;;;6356537;28;20291;-58
2024/02/15 04:57:41;;;;;;;7.83;5.73;;;;;;;;;;6357402;28;20299;-57
2024/02/15 05:00:48;;;;;;;10.30;5.17;;;;;;;;;;6338329;28;20294;-56
2024/02/15 05:03:55;;;;;;;7.23;5.60;;;;;;;;;;6356246;28;20284;-57
2024/02/15 05:06:59;;;;;;;7.57;5.20;;;;;;;;;;6357155;28;20312;-57
2024/02/15 05:10:06;;;;;;;7.57;5.13;;;;;;;;;;6349100;28;20604;-57
2024/02/15 05:13:11;;;;;;;10.57;5.13;;;;;;;;;;6356841;28;20297;-57
2024/02/15 05:16:17;;;;;;;7.57;4.73;;;;;;;;;;6357236;28;20295;-57
2024/02/15 05:19:21;;;;;;;11.70;5.00;;;;;;;;;;6356814;28;20303;-56
2024/02/15 05:22:28;;;;;;;13.97;6.27;;;;;;;;;;6338660;28;20282;-56
2024/02/15 05:25:32;;;;;;;12.80;5.57;;;;;;;;;;6356315;28;20600;-56
2024/02/15 05:28:37;;;;;;;11.33;5.47;;;;;;;;;;6356570;28;20346;-57
2024/02/15 05:31:43;;;;;;;11.27;5.00;;;;;;;;;;6356991;28;20291;-56
2024/02/15 05:34:47;;;;;;;9.27;4.83;;;;;;;;;;6355526;28;20290;-57
2024/02/15 05:37:53;;;;;;;10.30;5.20;;;;;;;;;;6356133;28;20282;-58
2024/02/15 05:40:57;;;;;;;6.97;4.57;;;;;;;;;;6356739;28;20385;-55
2024/02/15 05:44:01;;;;;;;6.90;4.40;;;;;;;;;;6356296;28;20287;-57
2024/02/15 05:47:07;;;;;;;10.77;4.80;;;;;;;;;;6356986;28;20287;-57
2024/02/15 05:50:11;;;;;;;12.20;5.27;;;;;;;;;;6356352;28;20305;-57
2024/02/15 05:53:14;;;;;;;13.10;5.30;;;;;;;;;;6356586;28;20286;-56
2024/02/15 05:56:18;;;;;;;17.67;5.47;;;;;;;;;;6356543;28;20296;-56
2024/02/15 05:59:22;;;;;;;16.47;6.10;;;;;;;;;;6356119;28;20563;-57
2024/02/15 06:02:27;;;;;;;8.13;5.03;;;;;;;;;;6356410;28;20293;-54
2024/02/15 06:05:32;;;;;;;9.90;4.80;;;;;;;;;;6358645;28;20299;-57
2024/02/15 06:08:37;;;;;;;12.60;5.57;;;;;;;;;;6359357;28;20294;-57
2024/02/15 06:11:41;;;;;;;10.03;5.00;;;;;;;;;;6355745;28;20294;-53
2024/02/15 06:14:45;;;;;;;10.37;5.03;;;;;;;;;;6360565;28;20292;-56
2024/02/15 06:17:50;;;;;;;14.40;5.73;;;;;;;;;;6360484;28;20483;-55
2024/02/15 06:20:56;;;;;;;12.63;5.60;;;;;;;;;;6361032;28;20363;-55
2024/02/15 06:24:00;;;;;;;11.07;5.17;;;;;;;;;;6360711;28;20295;-55
2024/02/15 06:27:05;;;;;;;10.47;5.83;;;;;;;;;;6360591;28;20568;-56
2024/02/15 06:40:18;;;;;;;22.97;7.07;;;;;;;;;;6360116;28;20364;-58
2024/02/15 06:43:22;;;;;;;20.17;7.03;;;;;;;;;;6360027;28;20302;-57
2024/02/15 06:46:26;;;;;;;17.40;6.13;;;;;;;;;;6360527;28;20420;-56
2024/02/15 06:49:31;;;;;;;26.70;7.40;;;;;;;;;;6358427;28;20302;-57
2024/02/15 06:52:35;;;;;;;16.67;6.70;;;;;;;;;;6359993;28;20292;-57
2024/02/15 06:55:40;;;;;;;20.53;7.20;;;;;;;;;;6359458;28;20294;-54
2024/02/15 06:58:45;;;;;;;24.23;7.53;;;;;;;;;;6360307;28;20233;-57
2024/02/15 07:01:49;;;;;;;22.03;7.70;;;;;;;;;;6360095;28;20482;-56
2024/02/15 07:04:54;;;;;;;22.00;7.97;;;;;;;;;;6358987;28;20290;-54
2024/02/15 07:07:58;;;;;;;26.63;7.70;;;;;;;;;;6359393;28;20295;-56
2024/02/15 07:11:03;;;;;;;21.77;7.47;;;;;;;;;;6352404;28;20285;-56
2024/02/15 07:14:09;;;;;;;23.53;8.23;;;;;;;;;;6358893;28;20305;-56
2024/02/15 07:17:13;;;;;;;21.07;7.57;;;;;;;;;;6357963;28;20290;-54
2024/02/15 07:20:18;;;;;;;25.27;8.40;;;;;;;;;;6359013;28;20305;-55
2024/02/15 07:23:22;;;;;;;25.60;7.90;;;;;;;;;;6358836;28;20304;-55
2024/02/15 07:26:26;;;;;;;25.93;8.33;;;;;;;;;;6359398;28;20297;-55
2024/02/15 07:29:31;;;;;;;24.73;8.40;;;;;;;;;;6358587;28;20294;-55
2024/02/15 07:32:35;;;;;;;23.23;8.03;;;;;;;;;;6359378;28;20300;-54
2024/02/15 07:35:43;;;;;;;23.33;8.37;;;;;;;;;;6358508;28;20306;-55
2024/02/15 07:38:48;;;;;;;21.53;8.37;;;;;;;;;;6358648;28;20295;-57
2024/02/15 07:41:52;;;;;;;26.27;8.53;;;;;;;;;;6359219;28;20291;-55
2024/02/15 07:44:56;;;;;;;27.90;9.63;;;;;;;;;;6358725;28;20291;-55
2024/02/15 07:48:00;;;;;;;24.83;9.47;;;;;;;;;;6358326;28;20287;-54
2024/02/15 07:51:09;;;;;;;23.90;9.47;;;;;;;;;;6359146;28;20287;-55
2024/02/15 07:54:13;;;;;;;27.67;9.17;;;;;;;;;;6358315;28;20294;-55
2024/02/15 07:57:17;;;;;;;25.93;9.30;;;;;;;;;;6358749;28;20296;-55
2024/02/15 08:00:21;;;;;;;29.00;9.40;;;;;;;;;;6358489;28;20259;-56
2024/02/15 08:03:26;;;;;;;27.57;9.27;;;;;;;;;;6358159;28;20556;-56
2024/02/15 08:06:33;;;;;;;32.93;10.97;;;;;;;;;;6358945;28;20309;-56
2024/02/15 08:09:37;;;;;;;30.93;10.77;;;;;;;;;;6350399;28;20296;-56
2024/02/15 08:12:46;;;;;;;39.07;11.73;;;;;;;;;;6358073;28;20580;-57
2024/02/15 08:15:52;;;;;;;27.70;11.03;;;;;;;;;;6358880;28;20291;-57
2024/02/15 08:18:56;;;;;;;33.13;11.53;;;;;;;;;;6358053;28;20332;-56
2024/02/15 08:22:07;;;;;;;23.90;10.47;;;;;;;;;;6358366;28;20598;-55
2024/02/15 08:25:12;;;;;;;26.73;10.87;;;;;;;;;;6358111;28;20292;-56
2024/02/15 08:28:16;;;;;;;24.30;11.43;;;;;;;;;;6357088;28;20242;-57
2024/02/15 08:31:22;;;;;;;25.17;11.53;;;;;;;;;;6358669;28;20294;-57
2024/02/15 08:34:26;;;;;;;30.47;11.90;;;;;;;;;;6357865;28;20291;-57
2024/02/15 08:37:31;;;;;;;31.87;12.10;;;;;;;;;;6357915;28;20293;-56
2024/02/15 08:40:35;;;;;;;28.67;12.43;;;;;;;;;;6357337;28;20300;-56
2024/02/15 08:43:41;;;;;;;30.83;12.37;;;;;;;;;;6357348;28;20298;-56
2024/02/15 08:46:45;;;;;;;27.60;12.07;;;;;;;;;;6357469;28;20296;-56
2024/02/15 08:49:48;;;;;;;28.97;12.10;;;;;;;;;;6383071;27;20377;-58
2024/02/15 08:52:55;;;;;;;23.83;12.00;;;;;;;;;;6357486;28;20295;-56
2024/02/15 08:55:59;;;;;;;26.97;12.23;;;;;;;;;;6357933;28;20302;-55
2024/02/15 08:59:03;;;;;;;24.17;11.03;;;;;;;;;;6368714;28;20286;-56
2024/02/15 09:02:07;;;;;;;24.00;10.83;;;;;;;;;;6383480;28;20291;-56
2024/02/15 09:05:14;;;;;;;26.03;11.80;;;;;;;;;;6374374;28;20299;-56
2024/02/15 09:08:20;;;;;;;18.00;10.20;;;;;;;;;;6377866;28;20292;-55
2024/02/15 09:11:29;;;;;;;22.83;10.07;;;;;;;;;;6350078;28;20295;-55
2024/02/15 09:14:33;;;;;;;26.97;11.30;;;;;;;;;;6366905;28;20451;-55
2024/02/15 09:17:38;;;;;;;21.83;10.47;;;;;;;;;;6357549;28;20295;-56
2024/02/15 09:20:44;;;;;;;20.53;10.27;;;;;;;;;;6356988;28;20287;-55
2024/02/15 09:23:50;;;;;;;29.73;10.90;;;;;;;;;;6365883;28;20422;-55
2024/02/15 09:26:54;;;;;;;20.17;9.97;;;;;;;;;;6369869;28;20572;-56
2024/02/15 09:29:58;;;;;;;22.10;10.20;;;;;;;;;;6380707;28;20571;-56
2024/02/15 09:33:04;;;;;;;17.57;9.40;;;;;;;;;;6357365;28;20304;-54
2024/02/15 09:36:09;;;;;;;14.97;9.13;;;;;;;;;;6357783;28;20593;-56
2024/02/15 09:39:14;;;;;;;19.93;9.73;;;;;;;;;;6357797;28;20296;-56
2024/02/15 09:42:18;;;;;;;18.47;9.23;;;;;;;;;;6362260;28;20366;-56
2024/02/15 09:45:24;;;;;;;17.93;10.47;;;;;;;;;;6361851;28;20460;-56
2024/02/15 09:48:30;;;;;;;18.77;9.83;;;;;;;;;;6361735;28;20300;-55
2024/02/15 09:51:35;;;;;;;16.73;9.80;;;;;;;;;;6362064;28;20329;-55
2024/02/15 09:54:43;;;;;;;15.73;9.17;;;;;;;;;;6361343;27;20307;-57
2024/02/15 09:57:47;;;;;;;22.10;10.07;;;;;;;;;;6336419;28;20437;-56
2024/02/15 10:00:51;;;;;;;14.83;8.83;;;;;;;;;;6336020;28;20368;-56
2024/02/15 10:03:57;;;;;;;14.50;9.03;;;;;;;;;;6335774;28;20378;-55
2024/02/15 10:07:01;;;;;;;12.43;8.60;;;;;;;;;;6336263;28;20589;-56
2024/02/15 10:10:19;;;;;;;17.37;9.43;;;;;;;;;;6332588;28;20285;-56
2024/02/15 10:13:24;;;;;;;15.53;9.50;;;;;;;;;;6335891;28;20306;-56
2024/02/15 10:16:29;;;;;;;19.37;9.47;;;;;;;;;;6358083;28;20290;-58
2024/02/15 10:19:34;;;;;;;16.30;9.30;;;;;;;;;;6360932;28;20284;-58
2024/02/15 10:22:38;;;;;;;19.50;9.23;;;;;;;;;;6360660;28;20300;-56
2024/02/15 10:25:44;;;;;;;15.50;9.50;;;;;;;;;;6360365;28;20534;-55
2024/02/15 10:28:48;;;;;;;22.00;10.37;;;;;;;;;;6360506;28;20303;-55
2024/02/15 10:31:56;;;;;;;19.07;10.13;;;;;;;;;;6361150;28;20289;-56
2024/02/15 10:34:59;;;;;;;17.03;10.37;;;;;;;;;;6360420;28;20292;-57
2024/02/15 10:38:09;;;;;;;16.60;9.83;;;;;;;;;;6360294;28;20313;-55
2024/02/15 10:41:15;;;;;;;18.73;9.67;;;;;;;;;;6360582;28;20291;-54
2024/02/15 10:44:20;;;;;;;17.57;9.60;;;;;;;;;;6360535;28;20296;-56
2024/02/15 10:47:24;;;;;;;14.77;9.37;;;;;;;;;;6360729;28;20316;-56
2024/02/15 10:50:28;;;;;;;13.93;9.23;;;;;;;;;;6359817;28;20401;-57
2024/02/15 10:53:33;;;;;;;21.23;10.23;;;;;;;;;;6360039;28;20295;-58
2024/02/15 10:56:44;;;;;;;17.57;10.30;;;;;;;;;;6377328;27;20295;-58
2024/02/15 10:59:57;;;;;;;20.97;10.33;;;;;;;;;;6385904;27;20296;-57
2024/02/15 11:03:04;;;;;;;18.57;10.07;;;;;;;;;;6366690;27;20408;-57
2024/02/15 11:06:10;;;;;;;19.00;9.67;;;;;;;;;;6386145;27;20428;-58
2024/02/15 11:09:15;;;;;;;16.80;10.10;;;;;;;;;;6378648;27;20288;-55
2024/02/15 11:12:20;;;;;;;19.07;9.87;;;;;;;;;;6356191;28;20296;-58
2024/02/15 11:15:51;;;;;;;17.87;9.97;;;;;;;;;;6359547;28;20303;-57
2024/02/15 11:18:55;;;;;;;17.37;9.47;;;;;;;;;;6385378;27;20284;-57
2024/02/15 11:22:03;;;;;;;15.23;8.80;;;;;;;;;;6385765;27;20447;-57
2024/02/15 11:25:08;;;;;;;15.77;8.67;;;;;;;;;;6384754;27;20299;-56
2024/02/15 11:28:38;;;;;;;11.80;8.40;;;;;;;;;;6384794;27;20370;-56
2024/02/15 11:31:55;;;;;;;13.80;9.20;;;;;;;;;;6384794;27;20304;-56
2024/02/15 11:35:10;;;;;;;17.87;9.60;;;;;;;;;;6384473;27;20282;-57
2024/02/15 11:38:28;;;;;;;17.27;9.33;;;;;;;;;;6384263;27;20295;-57
2024/02/15 11:41:33;;;;;;;16.57;8.70;;;;;;;;;;6384763;27;20291;-57
2024/02/15 11:44:38;;;;;;;18.67;10.10;;;;;;;;;;6383937;27;20299;-57
2024/02/15 11:47:43;;;;;;;14.60;9.33;;;;;;;;;;6384368;27;20481;-57
2024/02/15 11:50:47;;;;;;;21.17;10.30;;;;;;;;;;6384016;27;20291;-57
2024/02/15 11:54:05;;;;;;;19.13;9.97;;;;;;;;;;6384054;27;20373;-58
2024/02/15 11:57:13;;;;;;;15.70;9.80;;;;;;;;;;6384482;27;20291;-57
2024/02/15 12:20:39;;;;;;;17.17;9.97;;;;;;;;;;6383152;27;20311;-55
2024/02/15 12:23:43;;;;;;;17.37;9.73;;;;;;;;;;6383168;27;20308;-57
2024/02/15 12:26:47;;;;;;;20.20;10.57;;;;;;;;;;6384005;27;20311;-56
2024/02/15 12:29:55;;;;;;;19.57;10.07;;;;;;;;;;6383637;27;20291;-57
2024/02/15 12:33:12;;;;;;;16.17;9.60;;;;;;;;;;6383344;27;20287;-56
2024/02/15 12:36:21;;;;;;;17.37;9.93;;;;;;;;;;6383981;27;20533;-60
2024/02/15 12:39:27;;;;;;;14.93;9.63;;;;;;;;;;6332645;28;20256;-57
2024/02/15 12:42:32;;;;;;;18.47;9.97;;;;;;;;;;6333059;28;20602;-56
2024/02/15 12:45:37;;;;;;;17.90;10.57;;;;;;;;;;6332169;28;20431;-57
2024/02/15 12:48:43;;;;;;;15.60;9.80;;;;;;;;;;6332113;28;20304;-57
2024/02/15 12:51:52;;;;;;;17.57;9.80;;;;;;;;;;6332454;28;20476;-56
2024/02/15 12:55:09;;;;;;;22.50;10.57;;;;;;;;;;6332078;28;20298;-56
2024/02/15 12:58:14;;;;;;;18.73;9.87;;;;;;;;;;6332073;28;20296;-58
2024/02/15 13:01:20;;;;;;;17.17;9.90;;;;;;;;;;6332731;28;20285;-58
2024/02/15 13:04:26;;;;;;;15.00;9.30;;;;;;;;;;6331768;28;20403;-56
2024/02/15 13:07:30;;;;;;;15.83;9.73;;;;;;;;;;6332223;28;20388;-56
2024/02/15 13:10:35;;;;;;;15.43;10.23;;;;;;;;;;6342223;28;20296;-56
2024/02/15 13:13:39;;;;;;;20.67;10.13;;;;;;;;;;6358330;28;20299;-57
2024/02/15 13:16:44;;;;;;;17.77;10.70;;;;;;;;;;6362851;28;20312;-56
2024/02/15 13:19:50;;;;;;;17.73;10.27;;;;;;;;;;6362250;28;20296;-56
2024/02/15 13:22:57;;;;;;;18.27;10.30;;;;;;;;;;6362274;28;20284;-56
2024/02/15 13:26:04;;;;;;;15.80;9.97;;;;;;;;;;6362760;28;20287;-57
2024/02/15 13:29:08;;;;;;;16.77;10.00;;;;;;;;;;6361896;28;20293;-57
2024/02/15 13:32:12;;;;;;;18.20;10.23;;;;;;;;;;6362282;28;20545;-57
2024/02/15 13:35:20;;;;;;;19.00;9.80;;;;;;;;;;6361908;28;20292;-56
2024/02/15 13:38:24;;;;;;;18.17;10.63;;;;;;;;;;6361354;28;20398;-53
2024/02/15 13:41:28;;;;;;;20.23;11.10;;;;;;;;;;6362268;28;20296;-56
2024/02/15 13:44:32;;;;;;;26.53;11.93;;;;;;;;;;6361634;28;20421;-55
2024/02/15 13:47:36;;;;;;;20.53;10.07;;;;;;;;;;6361885;28;20607;-54
2024/02/15 13:50:41;;;;;;;24.87;10.67;;;;;;;;;;6361257;28;20291;-56
2024/02/15 13:53:47;;;;;;;23.57;11.20;;;;;;;;;;6361193;28;20299;-53
2024/02/15 13:56:51;;;;;;;28.53;10.83;;;;;;;;;;6361607;28;20296;-54
2024/02/15 13:59:55;;;;;;;29.00;11.33;;;;;;;;;;6361386;28;20290;-54
2024/02/15 14:03:01;;;;;;;28.63;10.63;;;;;;;;;;6361407;28;20288;-53
2024/02/15 14:06:06;;;;;;;31.03;12.33;;;;;;;;;;6361495;28;20323;-54
2024/02/15 14:09:12;;;;;;;28.90;11.57;;;;;;;;;;6360664;28;20383;-55
2024/02/15 14:12:16;;;;;;;29.90;11.53;;;;;;;;;;6361630;28;20614;-57
2024/02/15 14:15:21;;;;;;;32.07;11.33;;;;;;;;;;6360497;28;20260;-55
2024/02/15 14:18:24;;;;;;;30.83;11.33;;;;;;;;;;6360526;28;20300;-54
2024/02/15 14:21:32;;;;;;;32.40;11.63;;;;;;;;;;6361399;28;20291;-55
2024/02/15 14:24:38;;;;;;;24.00;10.67;;;;;;;;;;6360229;28;20296;-57
2024/02/15 14:27:42;;;;;;;30.40;10.67;;;;;;;;;;6361097;28;20296;-54
2024/02/15 14:34:07;;;;;;;25.40;10.10;;;;;;;;;;6360510;28;20308;-54
2024/02/15 14:37:12;;;;;;;26.33;10.27;;;;;;;;;;6361031;28;20290;-54
2024/02/15 14:40:17;;;;;;;37.13;11.03;;;;;;;;;;6341618;28;20469;-55
2024/02/15 14:43:22;;;;;;;28.50;10.50;;;;;;;;;;6360164;28;20311;-56
2024/02/15 14:46:27;;;;;;;34.93;11.33;;;;;;;;;;6360777;28;20298;-52
2024/02/15 14:49:30;;;;;;;36.57;10.60;;;;;;;;;;6359894;28;20291;-57
2024/02/15 14:52:37;;;;;;;31.60;11.07;;;;;;;;;;6360503;28;20292;-55
2024/02/15 14:55:45;;;;;;;25.97;10.73;;;;;;;;;;6359660;28;20466;-54
2024/02/15 14:58:50;;;;;;;26.63;11.37;;;;;;;;;;6359577;28;20551;-54
2024/02/15 15:01:54;;;;;;;33.30;11.57;;;;;;;;;;6360017;28;20573;-55
2024/02/15 15:15:19;;;;;;;31.27;11.70;;;;;;;;;;6334261;28;20297;-55
2024/02/15 15:18:23;;;;;;;33.17;12.47;;;;;;;;;;6334188;28;20294;-54
2024/02/15 15:21:28;;;;;;;29.73;10.40;;;;;;;;;;6334778;28;20310;-54
2024/02/15 15:24:34;;;;;;;34.57;11.83;;;;;;;;;;6334496;28;20327;-56
2024/02/15 15:27:39;;;;;;;35.00;11.57;;;;;;;;;;6334850;28;20292;-55
2024/02/15 15:30:48;;;;;;;36.90;12.40;;;;;;;;;;6334166;28;20294;-55
2024/02/15 15:33:52;;;;;;;34.60;11.50;;;;;;;;;;6333991;28;20312;-55
2024/02/15 15:36:57;;;;;;;30.47;10.03;;;;;;;;;;6333394;28;20295;-54
2024/02/15 15:40:02;;;;;;;41.13;12.87;;;;;;;;;;6333644;28;20285;-55
2024/02/15 15:43:06;;;;;;;31.67;10.07;;;;;;;;;;6333598;28;20294;-53
2024/02/15 15:46:14;;;;;;;36.57;11.53;;;;;;;;;;6333879;28;20596;-55
2024/02/15 15:49:18;;;;;;;36.97;10.33;;;;;;;;;;6333558;28;20445;-56
2024/02/15 15:52:22;;;;;;;36.13;10.67;;;;;;;;;;6334090;28;20295;-53
2024/02/15 15:55:27;;;;;;;30.50;10.80;;;;;;;;;;6339730;28;20299;-54
2024/02/15 15:58:31;;;;;;;49.30;11.00;;;;;;;;;;6358485;28;20448;-54
2024/02/15 16:01:37;;;;;;;36.93;10.80;;;;;;;;;;6358804;28;20295;-54
2024/02/15 16:04:44;;;;;;;36.00;10.67;;;;;;;;;;6358283;28;20300;-55
2024/02/15 16:07:50;;;;;;;37.10;11.17;;;;;;;;;;6358235;28;20457;-57
2024/02/15 16:10:56;;;;;;;47.17;11.53;;;;;;;;;;6358425;28;20320;-55
2024/02/15 16:14:00;;;;;;;45.20;10.57;;;;;;;;;;6358021;28;20459;-56
2024/02/15 16:17:04;;;;;;;39.90;10.13;;;;;;;;;;6358792;28;20298;-56
2024/02/15 16:20:09;;;;;;;42.57;11.03;;;;;;;;;;6357829;28;20303;-56
2024/02/15 16:23:13;;;;;;;41.53;11.63;;;;;;;;;;6357982;28;20286;-55
2024/02/15 16:26:18;;;;;;;39.50;10.80;;;;;;;;;;6358295;28;20301;-54
2024/02/15 16:29:22;;;;;;;41.87;11.07;;;;;;;;;;6357473;28;20580;-55
2024/02/15 16:32:26;;;;;;;33.20;10.57;;;;;;;;;;6358596;28;20295;-55
2024/02/15 16:35:30;;;;;;;35.63;10.70;;;;;;;;;;6357743;28;20295;-52
2024/02/15 16:38:35;;;;;;;32.83;8.97;;;;;;;;;;6356488;28;20555;-55
2024/02/15 16:41:41;;;;;;;34.00;9.30;;;;;;;;;;6358042;28;20292;-57
2024/02/15 16:44:47;;;;;;;45.57;10.33;;;;;;;;;;6357642;28;20303;-54
2024/02/15 16:47:55;;;;;;;43.20;11.13;;;;;;;;;;6356497;28;20294;-55
2024/02/15 16:51:01;;;;;;;42.50;10.17;;;;;;;;;;6358361;28;20282;-56
2024/02/15 16:54:08;;;;;;;39.50;10.00;;;;;;;;;;6357175;28;20287;-53
2024/02/15 16:57:13;;;;;;;43.70;10.47;;;;;;;;;;6357656;28;20295;-56
2024/02/15 17:00:18;;;;;;;46.27;11.40;;;;;;;;;;6357237;28;20598;-55
2024/02/15 17:03:22;;;;;;;37.30;11.57;;;;;;;;;;6357467;28;20480;-55
2024/02/15 17:06:28;;;;;;;51.53;11.20;;;;;;;;;;6358072;28;20292;-52
2024/02/15 17:09:32;;;;;;;41.37;10.87;;;;;;;;;;6357335;28;20581;-54
2024/02/15 17:12:37;;;;;;;42.83;11.13;;;;;;;;;;6357064;28;20572;-56
2024/02/15 17:15:41;;;;;;;47.27;10.67;;;;;;;;;;6356139;28;20290;-52
2024/02/15 17:18:48;;;;;;;40.70;10.60;;;;;;;;;;6357105;28;20286;-54
2024/02/15 17:21:52;;;;;;;49.77;11.17;;;;;;;;;;6357518;28;20297;-56
2024/02/15 17:24:56;;;;;;;42.87;11.13;;;;;;;;;;6357225;28;20307;-54
2024/02/15 17:28:04;;;;;;;42.83;10.93;;;;;;;;;;6357036;28;20298;-52
2024/02/15 17:31:09;;;;;;;49.80;12.00;;;;;;;;;;6357658;28;20315;-55
2024/02/15 17:34:13;;;;;;;40.37;11.27;;;;;;;;;;6356878;28;20372;-56
2024/02/15 17:37:17;;;;;;;53.57;10.97;;;;;;;;;;6357531;28;20291;-56
2024/02/15 17:40:21;;;;;;;43.67;11.73;;;;;;;;;;6357149;28;20299;-56
2024/02/15 17:43:27;;;;;;;32.93;11.00;;;;;;;;;;6357019;28;20292;-56
2024/02/15 17:46:32;;;;;;;55.23;12.10;;;;;;;;;;6356986;28;20295;-57
2024/02/15 17:49:36;;;;;;;54.87;11.60;;;;;;;;;;6356531;28;20605;-58
2024/02/15 17:52:39;;;;;;;58.87;12.43;;;;;;;;;;6357390;28;20292;-55
2024/02/15 17:55:44;;;;;;;48.93;11.47;;;;;;;;;;6356176;28;20316;-54
2024/02/15 17:58:49;;;;;;;69.03;13.67;;;;;;;;;;6356463;28;20317;-56
2024/02/15 18:01:53;;;;;;;46.27;12.10;;;;;;;;;;6360580;28;20605;-54
2024/02/15 18:04:57;;;;;;;42.53;11.90;;;;;;;;;;6361087;28;20295;-56
2024/02/15 18:08:00;;;;;;;52.30;13.33;;;;;;;;;;6361260;28;20289;-56
2024/02/15 18:11:07;;;;;;;57.80;14.17;;;;;;;;;;6361574;28;20513;-58
2024/02/15 18:14:12;;;;;;;46.93;12.77;;;;;;;;;;6360278;28;20303;-55
2024/02/15 18:17:16;;;;;;;51.23;12.70;;;;;;;;;;6361753;28;20293;-55
2024/02/15 18:20:22;;;;;;;47.20;12.40;;;;;;;;;;6360893;28;20291;-56
2024/02/15 18:23:26;;;;;;;54.33;13.00;;;;;;;;;;6360615;28;20542;-55
2024/02/15 18:26:30;;;;;;;50.17;12.30;;;;;;;;;;6361231;28;20286;-56
2024/02/15 18:29:36;;;;;;;50.53;11.63;;;;;;;;;;6361042;28;20293;-57
2024/02/15 18:32:41;;;;;;;59.77;13.27;;;;;;;;;;6361532;28;20296;-57
2024/02/15 18:35:45;;;;;;;54.20;12.37;;;;;;;;;;6360574;28;20311;-58
2024/02/15 18:38:48;;;;;;;57.37;12.33;;;;;;;;;;6360404;28;20290;-57
2024/02/15 18:41:52;;;;;;;54.17;12.33;;;;;;;;;;6361229;28;20295;-54
2024/02/15 18:44:58;;;;;;;47.40;12.17;;;;;;;;;;6360287;28;20286;-55
2024/02/15 18:48:03;;;;;;;53.17;11.87;;;;;;;;;;6360269;28;20482;-56
2024/02/15 18:51:07;;;;;;;56.00;12.37;;;;;;;;;;6361034;28;20281;-55
2024/02/15 18:54:11;;;;;;;56.23;13.23;;;;;;;;;;6360241;28;20315;-56